Georgia — WCZ9212 — position and weather

sailwx.info

Track history (hours):
 
Tides and Currents Weather Stations Pressure Air Temp Water Temp Dewpoint Dewpoint Depression Visibility Wind Speed Wind Dir Waves Ship Positions

Georgia

Owner: CRESCENT TOWING & SALVAGE CO INC, NEW ORLEANS, LA. More information available from US FCC via Universal Licensing System and Coast Guard Vessel Documentation Center.

Last reported at 2018-Jan-19 05:59 UTC. Time now 2018-Jan-19 07:21 UTC.
Position N 32°05' W 081°04'.

Length 30 m; draft 3.5 m.

Type: Tug. MMSI: 367368460.

Date/timePositionNaut miles runAvg speedWind from/ knotsBaromVisibWave heightAir tempDewpointWater temp
2018-Jan-19 05:59N 32°05' W 081°04'0 0.0
2018-Jan-19 05:31N 32°05' W 081°04'0 0.0
2018-Jan-19 05:01N 32°05' W 081°04'0 0.0
2018-Jan-19 04:31N 32°05' W 081°04'0 0.0
2018-Jan-19 04:01N 32°05' W 081°04'0 0.0
2018-Jan-19 03:31N 32°05' W 081°04'0 0.6
2018-Jan-19 03:00N 32°05' W 081°04'0 0.0
2018-Jan-19 02:31N 32°05' W 081°04'0 0.6
2018-Jan-19 02:01N 32°05' W 081°04'0 0.0
2018-Jan-19 01:30N 32°05' W 081°04'0 0.0
2018-Jan-19 01:01N 32°05' W 081°04'1 1.6
2018-Jan-19 00:31N 32°05' W 081°05'1 2.1
2018-Jan-19 00:00N 32°05' W 081°06'0 0.3
2018-Jan-18 23:31N 32°05' W 081°06'0 0.0
2018-Jan-18 23:00N 32°05' W 081°06'0 0.0
2018-Jan-18 22:31N 32°05' W 081°06'1 0.4
2018-Jan-18 21:14N 32°06' W 081°07'1 4.4
2018-Jan-18 21:00N 32°05' W 081°06'2 3.2
2018-Jan-18 20:31N 32°05' W 081°04'0 0.0
2018-Jan-18 20:00N 32°05' W 081°04'0 0.0
2018-Jan-18 19:30N 32°05' W 081°04'0 0.0
2018-Jan-18 19:01N 32°05' W 081°04'0 0.0
2018-Jan-18 18:31N 32°05' W 081°04'0 0.0
2018-Jan-18 18:01N 32°05' W 081°04'0 0.0
2018-Jan-18 17:31N 32°05' W 081°04'0 0.0
2018-Jan-18 17:01N 32°05' W 081°04'4 7.8
2018-Jan-18 16:31N 32°07' W 081°08'1 1.7
2018-Jan-18 16:00N 32°08' W 081°08'1 2.2
2018-Jan-18 15:30N 32°07' W 081°08'2 4.5
2018-Jan-18 15:01N 32°05' W 081°06'2 3.4
2018-Jan-18 14:31N 32°05' W 081°04'0 0.0
2018-Jan-18 14:01N 32°05' W 081°04'0 0.0
2018-Jan-18 13:31N 32°05' W 081°04'1 1.5
2018-Jan-18 13:01N 32°05' W 081°05'1 1.9
2018-Jan-18 12:31N 32°05' W 081°06'2 3.3
2018-Jan-18 12:01N 32°05' W 081°04'0 0.0
2018-Jan-18 11:30N 32°05' W 081°04'0 0.0
2018-Jan-18 11:00N 32°05' W 081°04'0 0.0
2018-Jan-18 10:30N 32°05' W 081°04'0 0.0
2018-Jan-18 10:00N 32°05' W 081°04'0 0.0
2018-Jan-18 09:30N 32°05' W 081°04'0 0.0
2018-Jan-18 09:01N 32°05' W 081°04'0 0.0
2018-Jan-18 08:30N 32°05' W 081°04'0 0.0
2018-Jan-18 08:01N 32°05' W 081°04'0 0.0
2018-Jan-18 07:31N 32°05' W 081°04'0 0.0
2018-Jan-18 07:01N 32°05' W 081°04'0 0.0
2018-Jan-18 06:30N 32°05' W 081°04'0 0.0
2018-Jan-18 06:01N 32°05' W 081°04'0 0.0
2018-Jan-18 05:31N 32°05' W 081°04'0 0.0
2018-Jan-18 05:01N 32°05' W 081°04'0 0.0
2018-Jan-18 04:31N 32°05' W 081°04'0 0.0
2018-Jan-18 03:06N 32°05' W 081°04'0 0.0
2018-Jan-18 03:00N 32°05' W 081°04'0 0.0
2018-Jan-18 02:30N 32°05' W 081°04'0 0.0
2018-Jan-18 02:01N 32°05' W 081°04'0 0.0
2018-Jan-18 01:31N 32°05' W 081°04'0 0.0
2018-Jan-18 01:01N 32°05' W 081°04'0 0.0
2018-Jan-17 23:59N 32°05' W 081°04'0 0.0
2018-Jan-17 23:58N 32°05' W 081°04'  
2018-Jan-12 15:00N 32°05' W 081°04'0 0.0
2018-Jan-12 14:30N 32°05' W 081°04'0 0.0
2018-Jan-12 13:59N 32°05' W 081°04'0 0.0
2018-Jan-12 13:29N 32°05' W 081°04'0 0.0
2018-Jan-12 13:00N 32°05' W 081°04'0 0.0
2018-Jan-12 12:29N 32°05' W 081°04'0 0.0
2018-Jan-12 12:00N 32°05' W 081°04'0 0.0
2018-Jan-12 11:30N 32°05' W 081°04'0 0.0
2018-Jan-12 10:59N 32°05' W 081°04'0 0.0
2018-Jan-12 10:30N 32°05' W 081°04'0 0.0
2018-Jan-12 09:59N 32°05' W 081°04'0 0.0
2018-Jan-12 09:30N 32°05' W 081°04'0 0.0
2018-Jan-12 09:00N 32°05' W 081°04'0 0.0
2018-Jan-12 08:30N 32°05' W 081°04'0 0.0
2018-Jan-12 08:00N 32°05' W 081°04'0 0.0
2018-Jan-12 07:30N 32°05' W 081°04'0 0.0
2018-Jan-12 07:00N 32°05' W 081°04'0 0.0
2018-Jan-12 06:30N 32°05' W 081°04'0 0.0
2018-Jan-12 06:00N 32°05' W 081°04'0 0.0
2018-Jan-12 05:30N 32°05' W 081°04'0 0.0
2018-Jan-12 05:00N 32°05' W 081°04'0 0.0
2018-Jan-12 04:30N 32°05' W 081°04'0 0.0
2018-Jan-12 03:59N 32°05' W 081°04'0 0.0
2018-Jan-12 03:30N 32°05' W 081°04'0 0.0
2018-Jan-12 03:00N 32°05' W 081°04'0 0.0
2018-Jan-12 02:30N 32°05' W 081°04'0 0.0
2018-Jan-12 02:00N 32°05' W 081°04'0 0.0
2018-Jan-12 01:30N 32°05' W 081°04'0 0.0
2018-Jan-12 01:00N 32°05' W 081°04'0 0.0
2018-Jan-12 00:30N 32°05' W 081°04'0 0.0
2018-Jan-12 00:00N 32°05' W 081°04'0 0.0
2018-Jan-11 23:30N 32°05' W 081°04'0 0.0
2018-Jan-11 23:00N 32°05' W 081°04'0 0.0
2018-Jan-11 22:30N 32°05' W 081°04'0 0.0
2018-Jan-11 22:00N 32°05' W 081°04'0 0.0
2018-Jan-11 21:30N 32°05' W 081°04'0 0.0
2018-Jan-11 21:00N 32°05' W 081°04'0 0.0
2018-Jan-11 20:30N 32°05' W 081°04'0 0.0
2018-Jan-11 20:00N 32°05' W 081°04'0 0.0
2018-Jan-11 19:30N 32°05' W 081°04'0 0.0
2018-Jan-11 18:59N 32°05' W 081°04'0 0.0
2018-Jan-11 18:30N 32°05' W 081°04'0 0.0
2018-Jan-11 18:00N 32°05' W 081°04'0 0.0
2018-Jan-11 17:28N 32°05' W 081°04'0 0.0
2018-Jan-11 16:24N 32°05' W 081°04'0 0.0
2018-Jan-11 16:00N 32°05' W 081°04'0 0.0
2018-Jan-11 15:30N 32°05' W 081°04'0 0.0
2018-Jan-11 15:00N 32°05' W 081°04'0 0.0
2018-Jan-11 14:30N 32°05' W 081°04'0 0.0
2018-Jan-11 13:58N 32°05' W 081°04'0 0.0
2018-Jan-11 13:30N 32°05' W 081°04'0 0.0
2018-Jan-11 12:57N 32°05' W 081°04'0 0.0
2018-Jan-11 12:30N 32°05' W 081°04'2 4.9
2018-Jan-11 12:00N 32°06' W 081°07'2 3.7
2018-Jan-11 11:30N 32°07' W 081°08'0 0.8
2018-Jan-11 11:00N 32°08' W 081°08'0 0.2
2018-Jan-11 10:30N 32°08' W 081°08'0 0.4
2018-Jan-11 09:59N 32°08' W 081°08'1 3.1
2018-Jan-11 09:30N 32°07' W 081°07'2 3.8
2018-Jan-11 09:00N 32°05' W 081°06'2 4.9
2018-Jan-11 08:30N 32°07' W 081°08'0 0.5
2018-Jan-11 08:00N 32°07' W 081°08'2 4.6
2018-Jan-11 07:30N 32°05' W 081°06'0 0.0
2018-Jan-11 07:00N 32°05' W 081°06'0 0.0
2018-Jan-11 06:30N 32°05' W 081°06'0 0.0
2018-Jan-11 06:00N 32°05' W 081°06'0 0.0
2018-Jan-11 05:30N 32°05' W 081°06'0 0.0
2018-Jan-11 04:58N 32°05' W 081°06'0 0.0
2018-Jan-11 04:30N 32°05' W 081°06'0 0.0
2018-Jan-11 04:00N 32°05' W 081°06'0 0.0
2018-Jan-11 03:25N 32°05' W 081°06'2 3.7
2018-Jan-11 03:00N 32°07' W 081°07'1 1.8
2018-Jan-11 02:30N 32°07' W 081°08'0 0.2
2018-Jan-11 02:00N 32°07' W 081°08'1 1.7
2018-Jan-11 01:30N 32°07' W 081°07'0 0.0
2018-Jan-11 01:00N 32°07' W 081°07'0 0.0
2018-Jan-11 00:30N 32°07' W 081°07'1 2.5
2018-Jan-10 23:59N 32°08' W 081°08'2 4.8
2018-Jan-10 23:30N 32°06' W 081°07'2 5.0
2018-Jan-10 23:00N 32°05' W 081°04'0 0.0
2018-Jan-10 22:30N 32°05' W 081°04'0 0.0
2018-Jan-10 21:59N 32°05' W 081°04'0 0.0
2018-Jan-10 21:30N 32°05' W 081°04'0 0.0
2018-Jan-10 21:00N 32°05' W 081°04'0 0.0
2018-Jan-10 20:30N 32°05' W 081°04'0 0.0
2018-Jan-10 20:00N 32°05' W 081°04'0 0.0
2018-Jan-10 19:30N 32°05' W 081°04'0 0.0
2018-Jan-10 19:00N 32°05' W 081°04'0 0.0
2018-Jan-10 18:30N 32°05' W 081°04'0 0.0
2018-Jan-10 18:00N 32°05' W 081°04'0 0.0
2018-Jan-10 17:30N 32°05' W 081°04'0 0.0
2018-Jan-10 17:00N 32°05' W 081°04'0 0.0
2018-Jan-10 16:26N 32°05' W 081°04'0 0.0
2018-Jan-10 16:00N 32°05' W 081°04'0 0.0
2018-Jan-10 15:30N 32°05' W 081°04'0 0.0
2018-Jan-10 15:00N 32°05' W 081°04'0 0.0
2018-Jan-10 14:29N 32°05' W 081°04'0 0.0
2018-Jan-10 14:00N 32°05' W 081°04'0 0.0
2018-Jan-10 13:30N 32°05' W 081°04'0 0.4
2018-Jan-10 13:00N 32°05' W 081°04'1 1.7
2018-Jan-10 12:30N 32°05' W 081°03'0 0.7
2018-Jan-10 12:00N 32°05' W 081°03'1 2.2
2018-Jan-10 11:30N 32°05' W 081°04'2 3.9
2018-Jan-10 11:00N 32°05' W 081°06'0 0.0
2018-Jan-10 10:30N 32°05' W 081°06'2 4.5
2018-Jan-10 10:00N 32°07' W 081°08'0 0.0
2018-Jan-10 09:30N 32°07' W 081°08'1 1.2
2018-Jan-10 09:00N 32°07' W 081°07'2 3.9
2018-Jan-10 08:30N 32°05' W 081°06'0 0.0
2018-Jan-10 08:00N 32°05' W 081°06'0 0.0
2018-Jan-10 07:30N 32°05' W 081°06'0 0.0
2018-Jan-10 07:00N 32°05' W 081°06'1 1.9
2018-Jan-10 06:30N 32°06' W 081°07'2 4.4
2018-Jan-10 06:00N 32°08' W 081°08'0 0.5
2018-Jan-10 05:30N 32°08' W 081°08'2 3.0
2018-Jan-10 05:00N 32°07' W 081°07'0 0.0
2018-Jan-10 04:30N 32°07' W 081°07'0 0.0
2018-Jan-10 04:00N 32°07' W 081°07'0 0.0
2018-Jan-10 03:30N 32°07' W 081°07'0 0.0
2018-Jan-10 03:00N 32°07' W 081°07'0 0.0
2018-Jan-10 02:30N 32°07' W 081°07'1 1.8
2018-Jan-10 02:00N 32°07' W 081°08'1 1.7
2018-Jan-10 01:30N 32°07' W 081°07'3 6.4
2018-Jan-10 00:58N 32°05' W 081°04'0 0.0
2018-Jan-10 00:30N 32°05' W 081°04'0 0.0
2018-Jan-10 00:00N 32°05' W 081°04'0 0.0
2018-Jan-09 23:30N 32°05' W 081°04'0 0.0
2018-Jan-09 23:00N 32°05' W 081°04'  
Track history (hours):
 
Tides and Currents Weather Stations Pressure Air Temp Water Temp Dewpoint Dewpoint Depression Visibility Wind Speed Wind Dir Waves Ship Positions

Georgia

Owner: CRESCENT TOWING & SALVAGE CO INC, NEW ORLEANS, LA. More information available from US FCC via Universal Licensing System and Coast Guard Vessel Documentation Center.

Last reported at 2018-Jan-19 05:59 UTC. Time now 2018-Jan-19 07:21 UTC.
Position N 32°05' W 081°04'.

Length 30 m; draft 3.5 m.

Type: Tug. MMSI: 367368460.

Date/timePositionNaut miles runAvg speedWind from/ knotsBaromVisibWave heightAir tempDewpointWater temp
2018-Jan-19 05:59N 32°05' W 081°04'0 0.0
2018-Jan-19 05:31N 32°05' W 081°04'0 0.0
2018-Jan-19 05:01N 32°05' W 081°04'0 0.0
2018-Jan-19 04:31N 32°05' W 081°04'0 0.0
2018-Jan-19 04:01N 32°05' W 081°04'0 0.0
2018-Jan-19 03:31N 32°05' W 081°04'0 0.6
2018-Jan-19 03:00N 32°05' W 081°04'0 0.0
2018-Jan-19 02:31N 32°05' W 081°04'0 0.6
2018-Jan-19 02:01N 32°05' W 081°04'0 0.0
2018-Jan-19 01:30N 32°05' W 081°04'0 0.0
2018-Jan-19 01:01N 32°05' W 081°04'1 1.6
2018-Jan-19 00:31N 32°05' W 081°05'1 2.1
2018-Jan-19 00:00N 32°05' W 081°06'0 0.3
2018-Jan-18 23:31N 32°05' W 081°06'0 0.0
2018-Jan-18 23:00N 32°05' W 081°06'0 0.0
2018-Jan-18 22:31N 32°05' W 081°06'1 0.4
2018-Jan-18 21:14N 32°06' W 081°07'1 4.4
2018-Jan-18 21:00N 32°05' W 081°06'2 3.2
2018-Jan-18 20:31N 32°05' W 081°04'0 0.0
2018-Jan-18 20:00N 32°05' W 081°04'0 0.0
2018-Jan-18 19:30N 32°05' W 081°04'0 0.0
2018-Jan-18 19:01N 32°05' W 081°04'0 0.0
2018-Jan-18 18:31N 32°05' W 081°04'0 0.0
2018-Jan-18 18:01N 32°05' W 081°04'0 0.0
2018-Jan-18 17:31N 32°05' W 081°04'0 0.0
2018-Jan-18 17:01N 32°05' W 081°04'4 7.8
2018-Jan-18 16:31N 32°07' W 081°08'1 1.7
2018-Jan-18 16:00N 32°08' W 081°08'1 2.2
2018-Jan-18 15:30N 32°07' W 081°08'2 4.5
2018-Jan-18 15:01N 32°05' W 081°06'2 3.4
2018-Jan-18 14:31N 32°05' W 081°04'0 0.0
2018-Jan-18 14:01N 32°05' W 081°04'0 0.0
2018-Jan-18 13:31N 32°05' W 081°04'1 1.5
2018-Jan-18 13:01N 32°05' W 081°05'1 1.9
2018-Jan-18 12:31N 32°05' W 081°06'2 3.3
2018-Jan-18 12:01N 32°05' W 081°04'0 0.0
2018-Jan-18 11:30N 32°05' W 081°04'0 0.0
2018-Jan-18 11:00N 32°05' W 081°04'0 0.0
2018-Jan-18 10:30N 32°05' W 081°04'0 0.0
2018-Jan-18 10:00N 32°05' W 081°04'0 0.0
2018-Jan-18 09:30N 32°05' W 081°04'0 0.0
2018-Jan-18 09:01N 32°05' W 081°04'0 0.0
2018-Jan-18 08:30N 32°05' W 081°04'0 0.0
2018-Jan-18 08:01N 32°05' W 081°04'0 0.0
2018-Jan-18 07:31N 32°05' W 081°04'0 0.0
2018-Jan-18 07:01N 32°05' W 081°04'0 0.0
2018-Jan-18 06:30N 32°05' W 081°04'0 0.0
2018-Jan-18 06:01N 32°05' W 081°04'0 0.0
2018-Jan-18 05:31N 32°05' W 081°04'0 0.0
2018-Jan-18 05:01N 32°05' W 081°04'0 0.0
2018-Jan-18 04:31N 32°05' W 081°04'0 0.0
2018-Jan-18 03:06N 32°05' W 081°04'0 0.0
2018-Jan-18 03:00N 32°05' W 081°04'0 0.0
2018-Jan-18 02:30N 32°05' W 081°04'0 0.0
2018-Jan-18 02:01N 32°05' W 081°04'0 0.0
2018-Jan-18 01:31N 32°05' W 081°04'0 0.0
2018-Jan-18 01:01N 32°05' W 081°04'0 0.0
2018-Jan-17 23:59N 32°05' W 081°04'0 0.0
2018-Jan-17 23:58N 32°05' W 081°04'  
2018-Jan-12 15:00N 32°05' W 081°04'0 0.0
2018-Jan-12 14:30N 32°05' W 081°04'0 0.0
2018-Jan-12 13:59N 32°05' W 081°04'0 0.0
2018-Jan-12 13:29N 32°05' W 081°04'0 0.0
2018-Jan-12 13:00N 32°05' W 081°04'0 0.0
2018-Jan-12 12:29N 32°05' W 081°04'0 0.0
2018-Jan-12 12:00N 32°05' W 081°04'0 0.0
2018-Jan-12 11:30N 32°05' W 081°04'0 0.0
2018-Jan-12 10:59N 32°05' W 081°04'0 0.0
2018-Jan-12 10:30N 32°05' W 081°04'0 0.0
2018-Jan-12 09:59N 32°05' W 081°04'0 0.0
2018-Jan-12 09:30N 32°05' W 081°04'0 0.0
2018-Jan-12 09:00N 32°05' W 081°04'0 0.0
2018-Jan-12 08:30N 32°05' W 081°04'0 0.0
2018-Jan-12 08:00N 32°05' W 081°04'0 0.0
2018-Jan-12 07:30N 32°05' W 081°04'0 0.0
2018-Jan-12 07:00N 32°05' W 081°04'0 0.0
2018-Jan-12 06:30N 32°05' W 081°04'0 0.0
2018-Jan-12 06:00N 32°05' W 081°04'0 0.0
2018-Jan-12 05:30N 32°05' W 081°04'0 0.0
2018-Jan-12 05:00N 32°05' W 081°04'0 0.0
2018-Jan-12 04:30N 32°05' W 081°04'0 0.0
2018-Jan-12 03:59N 32°05' W 081°04'0 0.0
2018-Jan-12 03:30N 32°05' W 081°04'0 0.0
2018-Jan-12 03:00N 32°05' W 081°04'0 0.0
2018-Jan-12 02:30N 32°05' W 081°04'0 0.0
2018-Jan-12 02:00N 32°05' W 081°04'0 0.0
2018-Jan-12 01:30N 32°05' W 081°04'0 0.0
2018-Jan-12 01:00N 32°05' W 081°04'0 0.0
2018-Jan-12 00:30N 32°05' W 081°04'0 0.0
2018-Jan-12 00:00N 32°05' W 081°04'0 0.0
2018-Jan-11 23:30N 32°05' W 081°04'0 0.0
2018-Jan-11 23:00N 32°05' W 081°04'0 0.0
2018-Jan-11 22:30N 32°05' W 081°04'0 0.0
2018-Jan-11 22:00N 32°05' W 081°04'0 0.0
2018-Jan-11 21:30N 32°05' W 081°04'0 0.0
2018-Jan-11 21:00N 32°05' W 081°04'0 0.0
2018-Jan-11 20:30N 32°05' W 081°04'0 0.0
2018-Jan-11 20:00N 32°05' W 081°04'0 0.0
2018-Jan-11 19:30N 32°05' W 081°04'0 0.0
2018-Jan-11 18:59N 32°05' W 081°04'0 0.0
2018-Jan-11 18:30N 32°05' W 081°04'0 0.0
2018-Jan-11 18:00N 32°05' W 081°04'0 0.0
2018-Jan-11 17:28N 32°05' W 081°04'0 0.0
2018-Jan-11 16:24N 32°05' W 081°04'0 0.0
2018-Jan-11 16:00N 32°05' W 081°04'0 0.0
2018-Jan-11 15:30N 32°05' W 081°04'0 0.0
2018-Jan-11 15:00N 32°05' W 081°04'0 0.0
2018-Jan-11 14:30N 32°05' W 081°04'0 0.0
2018-Jan-11 13:58N 32°05' W 081°04'0 0.0
2018-Jan-11 13:30N 32°05' W 081°04'0 0.0
2018-Jan-11 12:57N 32°05' W 081°04'0 0.0
2018-Jan-11 12:30N 32°05' W 081°04'2 4.9
2018-Jan-11 12:00N 32°06' W 081°07'2 3.7
2018-Jan-11 11:30N 32°07' W 081°08'0 0.8
2018-Jan-11 11:00N 32°08' W 081°08'0 0.2
2018-Jan-11 10:30N 32°08' W 081°08'0 0.4
2018-Jan-11 09:59N 32°08' W 081°08'1 3.1
2018-Jan-11 09:30N 32°07' W 081°07'2 3.8
2018-Jan-11 09:00N 32°05' W 081°06'2 4.9
2018-Jan-11 08:30N 32°07' W 081°08'0 0.5
2018-Jan-11 08:00N 32°07' W 081°08'2 4.6
2018-Jan-11 07:30N 32°05' W 081°06'0 0.0
2018-Jan-11 07:00N 32°05' W 081°06'0 0.0
2018-Jan-11 06:30N 32°05' W 081°06'0 0.0
2018-Jan-11 06:00N 32°05' W 081°06'0 0.0
2018-Jan-11 05:30N 32°05' W 081°06'0 0.0
2018-Jan-11 04:58N 32°05' W 081°06'0 0.0
2018-Jan-11 04:30N 32°05' W 081°06'0 0.0
2018-Jan-11 04:00N 32°05' W 081°06'0 0.0
2018-Jan-11 03:25N 32°05' W 081°06'2 3.7
2018-Jan-11 03:00N 32°07' W 081°07'1 1.8
2018-Jan-11 02:30N 32°07' W 081°08'0 0.2
2018-Jan-11 02:00N 32°07' W 081°08'1 1.7
2018-Jan-11 01:30N 32°07' W 081°07'0 0.0
2018-Jan-11 01:00N 32°07' W 081°07'0 0.0
2018-Jan-11 00:30N 32°07' W 081°07'1 2.5
2018-Jan-10 23:59N 32°08' W 081°08'2 4.8
2018-Jan-10 23:30N 32°06' W 081°07'2 5.0
2018-Jan-10 23:00N 32°05' W 081°04'0 0.0
2018-Jan-10 22:30N 32°05' W 081°04'0 0.0
2018-Jan-10 21:59N 32°05' W 081°04'0 0.0
2018-Jan-10 21:30N 32°05' W 081°04'0 0.0
2018-Jan-10 21:00N 32°05' W 081°04'0 0.0
2018-Jan-10 20:30N 32°05' W 081°04'0 0.0
2018-Jan-10 20:00N 32°05' W 081°04'0 0.0
2018-Jan-10 19:30N 32°05' W 081°04'0 0.0
2018-Jan-10 19:00N 32°05' W 081°04'0 0.0
2018-Jan-10 18:30N 32°05' W 081°04'0 0.0
2018-Jan-10 18:00N 32°05' W 081°04'0 0.0
2018-Jan-10 17:30N 32°05' W 081°04'0 0.0
2018-Jan-10 17:00N 32°05' W 081°04'0 0.0
2018-Jan-10 16:26N 32°05' W 081°04'0 0.0
2018-Jan-10 16:00N 32°05' W 081°04'0 0.0
2018-Jan-10 15:30N 32°05' W 081°04'0 0.0
2018-Jan-10 15:00N 32°05' W 081°04'0 0.0
2018-Jan-10 14:29N 32°05' W 081°04'0 0.0
2018-Jan-10 14:00N 32°05' W 081°04'0 0.0
2018-Jan-10 13:30N 32°05' W 081°04'0 0.4
2018-Jan-10 13:00N 32°05' W 081°04'1 1.7
2018-Jan-10 12:30N 32°05' W 081°03'0 0.7
2018-Jan-10 12:00N 32°05' W 081°03'1 2.2
2018-Jan-10 11:30N 32°05' W 081°04'2 3.9
2018-Jan-10 11:00N 32°05' W 081°06'0 0.0
2018-Jan-10 10:30N 32°05' W 081°06'2 4.5
2018-Jan-10 10:00N 32°07' W 081°08'0 0.0
2018-Jan-10 09:30N 32°07' W 081°08'1 1.2
2018-Jan-10 09:00N 32°07' W 081°07'2 3.9
2018-Jan-10 08:30N 32°05' W 081°06'0 0.0
2018-Jan-10 08:00N 32°05' W 081°06'0 0.0
2018-Jan-10 07:30N 32°05' W 081°06'0 0.0
2018-Jan-10 07:00N 32°05' W 081°06'1 1.9
2018-Jan-10 06:30N 32°06' W 081°07'2 4.4
2018-Jan-10 06:00N 32°08' W 081°08'0 0.5
2018-Jan-10 05:30N 32°08' W 081°08'2 3.0
2018-Jan-10 05:00N 32°07' W 081°07'0 0.0
2018-Jan-10 04:30N 32°07' W 081°07'0 0.0
2018-Jan-10 04:00N 32°07' W 081°07'0 0.0
2018-Jan-10 03:30N 32°07' W 081°07'0 0.0
2018-Jan-10 03:00N 32°07' W 081°07'0 0.0
2018-Jan-10 02:30N 32°07' W 081°07'1 1.8
2018-Jan-10 02:00N 32°07' W 081°08'1 1.7
2018-Jan-10 01:30N 32°07' W 081°07'3 6.4
2018-Jan-10 00:58N 32°05' W 081°04'0 0.0
2018-Jan-10 00:30N 32°05' W 081°04'0 0.0
2018-Jan-10 00:00N 32°05' W 081°04'0 0.0
2018-Jan-09 23:30N 32°05' W 081°04'0 0.0
2018-Jan-09 23:00N 32°05' W 081°04'  

Dump ship's entire track history